Terminal Aerodrome Forecast
Issued by NWS

Home | Current Version | Previous Version | Text Only | Print | Product List | Glossary On
Versions: 1 2 3 4 5 6 7 8 9 10 11 12 13 14 15 16 17 18 19 20 21 22 23 24 25 26 27 28 29 30 31 32 33 34 35
035
FTAK31 PAFA 121120
TAFASC
TAF
PASC 121120Z 1212/1312 09008KT P6SM SCT012 BKN100
      TEMPO 1212/1215 BKN012
     FM121500 08015KT 4SM BLSN OVC012
     FM121800 08024G30KT 1/2SM BLSN OVC008
     FM122100 08028G35KT 1/4SM BLSN VV006
     FM130300 08030G38KT 1/4SM BLSN VV005
     FM130900 08035G42KT 1/4SM BLSN VV003=

USA.gov is the U.S. government's official web portal to all federal, state and local government web resources and services.